sensor_id;sensor_type;location;lat;lon;timestamp;P1;durP1;ratioP1;P2;durP2;ratioP2
37771;SDS011;23610;59.380;24.642;2023-03-14T00:04:38;3.00;;;1.88;;
37771;SDS011;23610;59.380;24.642;2023-03-14T00:09:49;3.80;;;1.70;;
37771;SDS011;23610;59.380;24.642;2023-03-14T00:14:53;3.17;;;2.05;;
37771;SDS011;23610;59.380;24.642;2023-03-14T00:20:02;4.07;;;1.65;;
37771;SDS011;23610;59.380;24.642;2023-03-14T00:25:12;3.78;;;1.55;;
37771;SDS011;23610;59.380;24.642;2023-03-14T00:30:17;2.13;;;1.50;;
37771;SDS011;23610;59.380;24.642;2023-03-14T00:35:26;3.53;;;2.33;;
37771;SDS011;23610;59.380;24.642;2023-03-14T00:40:38;4.50;;;2.45;;
37771;SDS011;23610;59.380;24.642;2023-03-14T00:45:48;13.68;;;4.47;;
37771;SDS011;23610;59.380;24.642;2023-03-14T00:51:04;10.23;;;5.22;;
37771;SDS011;23610;59.380;24.642;2023-03-14T00:56:10;19.20;;;6.10;;
37771;SDS011;23610;59.380;24.642;2023-03-14T01:01:20;13.73;;;6.07;;
37771;SDS011;23610;59.380;24.642;2023-03-14T01:06:27;21.13;;;8.00;;
37771;SDS011;23610;59.380;24.642;2023-03-14T01:11:34;14.85;;;7.20;;
37771;SDS011;23610;59.380;24.642;2023-03-14T01:16:51;20.17;;;7.25;;
37771;SDS011;23610;59.380;24.642;2023-03-14T01:21:55;20.88;;;8.65;;
37771;SDS011;23610;59.380;24.642;2023-03-14T01:27:05;21.52;;;7.90;;
37771;SDS011;23610;59.380;24.642;2023-03-14T01:32:08;18.33;;;7.27;;
37771;SDS011;23610;59.380;24.642;2023-03-14T01:37:22;16.58;;;6.03;;
37771;SDS011;23610;59.380;24.642;2023-03-14T01:42:28;13.90;;;5.78;;
37771;SDS011;23610;59.380;24.642;2023-03-14T01:47:37;12.63;;;5.18;;
37771;SDS011;23610;59.380;24.642;2023-03-14T01:52:47;8.05;;;3.83;;
37771;SDS011;23610;59.380;24.642;2023-03-14T01:57:58;14.85;;;4.30;;
37771;SDS011;23610;59.380;24.642;2023-03-14T02:03:15;13.27;;;5.50;;
37771;SDS011;23610;59.380;24.642;2023-03-14T02:08:27;9.00;;;3.88;;
37771;SDS011;23610;59.380;24.642;2023-03-14T02:13:40;8.90;;;4.28;;
37771;SDS011;23610;59.380;24.642;2023-03-14T02:25:14;9.05;;;3.60;;
37771;SDS011;23610;59.380;24.642;2023-03-14T02:30:29;19.58;;;5.22;;
37771;SDS011;23610;59.380;24.642;2023-03-14T02:40:59;12.15;;;4.88;;
37771;SDS011;23610;59.380;24.642;2023-03-14T02:46:07;10.75;;;5.95;;
37771;SDS011;23610;59.380;24.642;2023-03-14T02:51:26;9.55;;;4.22;;
37771;SDS011;23610;59.380;24.642;2023-03-14T02:56:34;7.07;;;3.50;;
37771;SDS011;23610;59.380;24.642;2023-03-14T03:01:46;7.05;;;4.03;;
37771;SDS011;23610;59.380;24.642;2023-03-14T03:07:07;6.82;;;3.90;;
37771;SDS011;23610;59.380;24.642;2023-03-14T03:12:14;10.60;;;3.20;;
37771;SDS011;23610;59.380;24.642;2023-03-14T03:17:22;8.15;;;4.60;;
37771;SDS011;23610;59.380;24.642;2023-03-14T03:22:28;13.02;;;3.92;;
37771;SDS011;23610;59.380;24.642;2023-03-14T03:27:39;8.98;;;4.03;;
37771;SDS011;23610;59.380;24.642;2023-03-14T03:32:45;8.68;;;3.20;;
37771;SDS011;23610;59.380;24.642;2023-03-14T03:37:54;12.27;;;3.97;;
37771;SDS011;23610;59.380;24.642;2023-03-14T03:42:58;8.13;;;3.53;;
37771;SDS011;23610;59.380;24.642;2023-03-14T03:48:03;6.72;;;2.67;;
37771;SDS011;23610;59.380;24.642;2023-03-14T03:53:15;10.73;;;3.28;;
37771;SDS011;23610;59.380;24.642;2023-03-14T03:58:37;14.60;;;2.80;;
37771;SDS011;23610;59.380;24.642;2023-03-14T04:03:47;6.50;;;2.60;;
37771;SDS011;23610;59.380;24.642;2023-03-14T04:09:09;5.40;;;2.40;;
37771;SDS011;23610;59.380;24.642;2023-03-14T04:14:19;7.00;;;2.78;;
37771;SDS011;23610;59.380;24.642;2023-03-14T04:19:41;5.97;;;2.72;;
37771;SDS011;23610;59.380;24.642;2023-03-14T04:24:50;8.05;;;3.65;;
37771;SDS011;23610;59.380;24.642;2023-03-14T04:29:59;12.88;;;3.65;;
37771;SDS011;23610;59.380;24.642;2023-03-14T04:35:30;8.23;;;3.40;;
37771;SDS011;23610;59.380;24.642;2023-03-14T04:40:48;15.80;;;4.22;;
37771;SDS011;23610;59.380;24.642;2023-03-14T04:45:58;11.30;;;3.90;;
37771;SDS011;23610;59.380;24.642;2023-03-14T04:51:09;18.23;;;5.25;;
37771;SDS011;23610;59.380;24.642;2023-03-14T04:56:19;9.23;;;3.83;;
37771;SDS011;23610;59.380;24.642;2023-03-14T05:01:27;14.15;;;4.70;;
37771;SDS011;23610;59.380;24.642;2023-03-14T05:06:44;27.00;;;4.90;;
37771;SDS011;23610;59.380;24.642;2023-03-14T05:12:14;14.45;;;4.15;;
37771;SDS011;23610;59.380;24.642;2023-03-14T05:18:01;18.90;;;4.82;;
37771;SDS011;23610;59.380;24.642;2023-03-14T05:23:23;26.35;;;4.65;;
37771;SDS011;23610;59.380;24.642;2023-03-14T05:29:01;21.55;;;5.93;;
37771;SDS011;23610;59.380;24.642;2023-03-14T05:34:12;19.83;;;4.55;;
37771;SDS011;23610;59.380;24.642;2023-03-14T05:39:50;21.08;;;5.25;;
37771;SDS011;23610;59.380;24.642;2023-03-14T05:45:27;18.75;;;5.32;;
37771;SDS011;23610;59.380;24.642;2023-03-14T05:50:43;22.02;;;6.32;;
37771;SDS011;23610;59.380;24.642;2023-03-14T05:56:17;18.35;;;5.75;;
37771;SDS011;23610;59.380;24.642;2023-03-14T06:01:41;16.63;;;3.78;;
37771;SDS011;23610;59.380;24.642;2023-03-14T06:06:57;26.60;;;3.92;;
37771;SDS011;23610;59.380;24.642;2023-03-14T06:12:07;21.85;;;6.05;;
37771;SDS011;23610;59.380;24.642;2023-03-14T06:17:16;25.40;;;4.60;;
37771;SDS011;23610;59.380;24.642;2023-03-14T06:22:31;16.10;;;4.73;;
37771;SDS011;23610;59.380;24.642;2023-03-14T06:27:35;18.85;;;5.47;;
37771;SDS011;23610;59.380;24.642;2023-03-14T06:32:40;30.17;;;5.45;;
37771;SDS011;23610;59.380;24.642;2023-03-14T06:37:49;14.95;;;3.85;;
37771;SDS011;23610;59.380;24.642;2023-03-14T06:42:56;27.75;;;5.18;;
37771;SDS011;23610;59.380;24.642;2023-03-14T06:48:15;14.85;;;4.60;;
37771;SDS011;23610;59.380;24.642;2023-03-14T06:53:29;24.42;;;5.47;;
37771;SDS011;23610;59.380;24.642;2023-03-14T06:58:39;20.35;;;4.05;;
37771;SDS011;23610;59.380;24.642;2023-03-14T07:03:44;15.20;;;3.80;;
37771;SDS011;23610;59.380;24.642;2023-03-14T07:08:50;17.30;;;4.13;;
37771;SDS011;23610;59.380;24.642;2023-03-14T07:13:58;14.45;;;4.85;;
37771;SDS011;23610;59.380;24.642;2023-03-14T07:19:06;19.42;;;4.25;;
37771;SDS011;23610;59.380;24.642;2023-03-14T07:24:17;18.02;;;3.63;;
37771;SDS011;23610;59.380;24.642;2023-03-14T07:29:24;14.15;;;4.13;;
37771;SDS011;23610;59.380;24.642;2023-03-14T07:34:36;20.80;;;4.15;;
37771;SDS011;23610;59.380;24.642;2023-03-14T07:39:40;15.90;;;5.22;;
37771;SDS011;23610;59.380;24.642;2023-03-14T07:44:53;25.70;;;4.90;;
37771;SDS011;23610;59.380;24.642;2023-03-14T07:49:56;17.40;;;5.60;;
37771;SDS011;23610;59.380;24.642;2023-03-14T07:55:06;21.63;;;4.28;;
37771;SDS011;23610;59.380;24.642;2023-03-14T08:00:19;31.70;;;6.80;;
37771;SDS011;23610;59.380;24.642;2023-03-14T08:05:26;20.83;;;4.82;;
37771;SDS011;23610;59.380;24.642;2023-03-14T08:10:37;16.13;;;4.28;;
37771;SDS011;23610;59.380;24.642;2023-03-14T08:15:46;19.30;;;4.80;;
37771;SDS011;23610;59.380;24.642;2023-03-14T08:20:57;26.52;;;5.25;;
37771;SDS011;23610;59.380;24.642;2023-03-14T08:26:05;16.42;;;4.93;;
37771;SDS011;23610;59.380;24.642;2023-03-14T08:31:10;14.48;;;3.97;;
37771;SDS011;23610;59.380;24.642;2023-03-14T08:36:19;15.63;;;4.15;;
37771;SDS011;23610;59.380;24.642;2023-03-14T08:41:25;25.83;;;5.82;;
37771;SDS011;23610;59.380;24.642;2023-03-14T08:46:32;23.35;;;5.82;;
37771;SDS011;23610;59.380;24.642;2023-03-14T08:51:43;14.48;;;4.78;;
37771;SDS011;23610;59.380;24.642;2023-03-14T08:56:54;24.35;;;4.30;;
37771;SDS011;23610;59.380;24.642;2023-03-14T09:02:00;18.33;;;4.53;;
37771;SDS011;23610;59.380;24.642;2023-03-14T09:07:14;20.35;;;4.55;;
37771;SDS011;23610;59.380;24.642;2023-03-14T09:12:18;26.23;;;5.05;;
37771;SDS011;23610;59.380;24.642;2023-03-14T09:17:25;12.45;;;3.58;;
37771;SDS011;23610;59.380;24.642;2023-03-14T09:22:38;14.73;;;4.25;;
37771;SDS011;23610;59.380;24.642;2023-03-14T09:27:41;14.77;;;4.55;;
37771;SDS011;23610;59.380;24.642;2023-03-14T09:33:00;27.73;;;4.25;;
37771;SDS011;23610;59.380;24.642;2023-03-14T09:38:08;19.10;;;4.15;;
37771;SDS011;23610;59.380;24.642;2023-03-14T09:43:15;17.38;;;4.47;;
37771;SDS011;23610;59.380;24.642;2023-03-14T09:48:35;17.10;;;3.13;;
37771;SDS011;23610;59.380;24.642;2023-03-14T09:53:44;14.23;;;4.30;;
37771;SDS011;23610;59.380;24.642;2023-03-14T09:59:01;19.10;;;5.55;;
37771;SDS011;23610;59.380;24.642;2023-03-14T10:04:17;16.20;;;3.40;;
37771;SDS011;23610;59.380;24.642;2023-03-14T10:09:27;16.15;;;3.65;;
37771;SDS011;23610;59.380;24.642;2023-03-14T10:14:51;13.43;;;3.63;;
37771;SDS011;23610;59.380;24.642;2023-03-14T10:20:05;21.63;;;4.28;;
37771;SDS011;23610;59.380;24.642;2023-03-14T10:25:43;13.20;;;3.25;;
37771;SDS011;23610;59.380;24.642;2023-03-14T10:31:27;15.80;;;4.25;;
37771;SDS011;23610;59.380;24.642;2023-03-14T10:42:39;15.45;;;5.10;;
37771;SDS011;23610;59.380;24.642;2023-03-14T10:47:54;15.18;;;3.58;;
37771;SDS011;23610;59.380;24.642;2023-03-14T10:53:17;18.75;;;4.55;;
37771;SDS011;23610;59.380;24.642;2023-03-14T10:58:29;20.63;;;4.75;;
37771;SDS011;23610;59.380;24.642;2023-03-14T11:09:41;10.95;;;4.10;;
37771;SDS011;23610;59.380;24.642;2023-03-14T11:21:20;13.43;;;3.27;;
37771;SDS011;23610;59.380;24.642;2023-03-14T11:27:06;17.08;;;3.90;;
37771;SDS011;23610;59.380;24.642;2023-03-14T11:32:57;14.90;;;4.07;;
37771;SDS011;23610;59.380;24.642;2023-03-14T11:43:41;19.58;;;3.78;;
37771;SDS011;23610;59.380;24.642;2023-03-14T11:54:50;17.88;;;3.40;;
37771;SDS011;23610;59.380;24.642;2023-03-14T12:00:23;13.15;;;3.30;;
37771;SDS011;23610;59.380;24.642;2023-03-14T12:11:51;14.85;;;3.03;;
37771;SDS011;23610;59.380;24.642;2023-03-14T12:17:17;18.52;;;3.80;;
37771;SDS011;23610;59.380;24.642;2023-03-14T12:23:01;18.88;;;3.92;;
37771;SDS011;23610;59.380;24.642;2023-03-14T12:28:21;10.52;;;3.47;;
37771;SDS011;23610;59.380;24.642;2023-03-14T12:34:00;18.25;;;3.65;;
37771;SDS011;23610;59.380;24.642;2023-03-14T12:50:53;14.07;;;4.00;;
37771;SDS011;23610;59.380;24.642;2023-03-14T13:07:32;11.80;;;5.10;;
37771;SDS011;23610;59.380;24.642;2023-03-14T13:19:01;18.02;;;5.22;;
37771;SDS011;23610;59.380;24.642;2023-03-14T13:24:28;15.50;;;6.35;;
37771;SDS011;23610;59.380;24.642;2023-03-14T13:29:42;11.82;;;4.70;;
37771;SDS011;23610;59.380;24.642;2023-03-14T13:34:47;10.77;;;5.20;;
37771;SDS011;23610;59.380;24.642;2023-03-14T13:40:04;16.05;;;5.22;;
37771;SDS011;23610;59.380;24.642;2023-03-14T13:45:44;12.48;;;4.88;;
37771;SDS011;23610;59.380;24.642;2023-03-14T13:51:05;16.98;;;5.07;;
37771;SDS011;23610;59.380;24.642;2023-03-14T13:56:24;15.80;;;5.45;;
37771;SDS011;23610;59.380;24.642;2023-03-14T14:01:36;11.07;;;5.38;;
37771;SDS011;23610;59.380;24.642;2023-03-14T14:06:53;11.60;;;4.63;;
37771;SDS011;23610;59.380;24.642;2023-03-14T14:12:04;14.25;;;5.68;;
37771;SDS011;23610;59.380;24.642;2023-03-14T14:17:39;13.60;;;4.90;;
37771;SDS011;23610;59.380;24.642;2023-03-14T14:22:52;15.63;;;4.38;;
37771;SDS011;23610;59.380;24.642;2023-03-14T14:34:03;13.20;;;4.90;;
37771;SDS011;23610;59.380;24.642;2023-03-14T14:39:17;16.98;;;7.00;;
37771;SDS011;23610;59.380;24.642;2023-03-14T14:44:30;11.38;;;5.93;;
37771;SDS011;23610;59.380;24.642;2023-03-14T14:49:48;13.35;;;5.60;;
37771;SDS011;23610;59.380;24.642;2023-03-14T14:55:11;13.73;;;5.35;;
37771;SDS011;23610;59.380;24.642;2023-03-14T15:00:31;14.75;;;6.60;;
37771;SDS011;23610;59.380;24.642;2023-03-14T15:05:44;9.68;;;4.65;;
37771;SDS011;23610;59.380;24.642;2023-03-14T15:10:54;15.23;;;5.72;;
37771;SDS011;23610;59.380;24.642;2023-03-14T15:16:18;9.25;;;5.25;;
37771;SDS011;23610;59.380;24.642;2023-03-14T15:21:30;10.88;;;5.47;;
37771;SDS011;23610;59.380;24.642;2023-03-14T15:26:47;20.23;;;6.22;;
37771;SDS011;23610;59.380;24.642;2023-03-14T15:32:11;13.48;;;5.35;;
37771;SDS011;23610;59.380;24.642;2023-03-14T15:37:37;11.98;;;4.28;;
37771;SDS011;23610;59.380;24.642;2023-03-14T15:42:56;11.07;;;5.10;;
37771;SDS011;23610;59.380;24.642;2023-03-14T15:48:21;16.60;;;4.75;;
37771;SDS011;23610;59.380;24.642;2023-03-14T15:53:39;14.40;;;6.47;;
37771;SDS011;23610;59.380;24.642;2023-03-14T15:58:45;13.95;;;6.25;;
37771;SDS011;23610;59.380;24.642;2023-03-14T16:03:55;15.93;;;7.97;;
37771;SDS011;23610;59.380;24.642;2023-03-14T16:08:59;11.75;;;6.55;;
37771;SDS011;23610;59.380;24.642;2023-03-14T16:14:11;14.80;;;7.10;;
37771;SDS011;23610;59.380;24.642;2023-03-14T16:19:19;17.48;;;7.63;;
37771;SDS011;23610;59.380;24.642;2023-03-14T16:24:35;11.70;;;7.22;;
37771;SDS011;23610;59.380;24.642;2023-03-14T16:29:41;19.02;;;7.28;;
37771;SDS011;23610;59.380;24.642;2023-03-14T16:34:50;12.93;;;7.35;;
37771;SDS011;23610;59.380;24.642;2023-03-14T16:39:55;13.73;;;7.57;;
37771;SDS011;23610;59.380;24.642;2023-03-14T16:45:13;13.23;;;9.10;;
37771;SDS011;23610;59.380;24.642;2023-03-14T16:50:20;13.50;;;8.45;;
37771;SDS011;23610;59.380;24.642;2023-03-14T16:55:30;13.52;;;8.05;;
37771;SDS011;23610;59.380;24.642;2023-03-14T17:00:36;15.00;;;7.90;;
37771;SDS011;23610;59.380;24.642;2023-03-14T17:05:49;16.83;;;8.10;;
37771;SDS011;23610;59.380;24.642;2023-03-14T17:11:11;15.25;;;8.50;;
37771;SDS011;23610;59.380;24.642;2023-03-14T17:16:18;18.60;;;8.30;;
37771;SDS011;23610;59.380;24.642;2023-03-14T17:21:25;14.35;;;10.07;;
37771;SDS011;23610;59.380;24.642;2023-03-14T17:26:35;16.00;;;10.05;;
37771;SDS011;23610;59.380;24.642;2023-03-14T17:31:50;14.85;;;9.82;;
37771;SDS011;23610;59.380;24.642;2023-03-14T17:36:56;13.05;;;9.73;;
37771;SDS011;23610;59.380;24.642;2023-03-14T17:42:09;19.65;;;10.82;;
37771;SDS011;23610;59.380;24.642;2023-03-14T17:47:22;18.85;;;11.90;;
37771;SDS011;23610;59.380;24.642;2023-03-14T17:52:28;23.30;;;12.48;;
37771;SDS011;23610;59.380;24.642;2023-03-14T17:57:36;23.08;;;12.43;;
37771;SDS011;23610;59.380;24.642;2023-03-14T18:02:47;20.17;;;12.10;;
37771;SDS011;23610;59.380;24.642;2023-03-14T18:07:57;22.27;;;12.55;;
37771;SDS011;23610;59.380;24.642;2023-03-14T18:13:20;21.58;;;14.27;;
37771;SDS011;23610;59.380;24.642;2023-03-14T18:18:31;24.42;;;14.18;;
37771;SDS011;23610;59.380;24.642;2023-03-14T18:23:40;25.45;;;12.85;;
37771;SDS011;23610;59.380;24.642;2023-03-14T18:28:52;22.70;;;14.25;;
37771;SDS011;23610;59.380;24.642;2023-03-14T18:34:05;26.52;;;15.52;;
37771;SDS011;23610;59.380;24.642;2023-03-14T18:39:13;23.90;;;13.85;;
37771;SDS011;23610;59.380;24.642;2023-03-14T18:44:19;24.63;;;15.73;;
37771;SDS011;23610;59.380;24.642;2023-03-14T18:49:27;25.70;;;14.90;;
37771;SDS011;23610;59.380;24.642;2023-03-14T18:54:40;30.27;;;16.02;;
37771;SDS011;23610;59.380;24.642;2023-03-14T18:59:49;25.67;;;15.00;;
37771;SDS011;23610;59.380;24.642;2023-03-14T19:04:57;25.38;;;13.90;;
37771;SDS011;23610;59.380;24.642;2023-03-14T19:10:11;26.52;;;14.00;;
37771;SDS011;23610;59.380;24.642;2023-03-14T19:15:33;23.00;;;11.50;;
37771;SDS011;23610;59.380;24.642;2023-03-14T19:20:37;18.67;;;12.10;;
37771;SDS011;23610;59.380;24.642;2023-03-14T19:25:41;25.52;;;13.77;;
37771;SDS011;23610;59.380;24.642;2023-03-14T19:30:46;27.35;;;14.13;;
37771;SDS011;23610;59.380;24.642;2023-03-14T19:35:50;22.40;;;12.57;;
37771;SDS011;23610;59.380;24.642;2023-03-14T19:40:56;21.10;;;11.70;;
37771;SDS011;23610;59.380;24.642;2023-03-14T19:46:00;23.73;;;13.77;;
37771;SDS011;23610;59.380;24.642;2023-03-14T19:51:03;25.77;;;12.18;;
37771;SDS011;23610;59.380;24.642;2023-03-14T19:56:06;20.30;;;12.50;;
37771;SDS011;23610;59.380;24.642;2023-03-14T20:01:10;27.25;;;13.95;;
37771;SDS011;23610;59.380;24.642;2023-03-14T20:06:13;31.45;;;16.23;;
37771;SDS011;23610;59.380;24.642;2023-03-14T20:11:16;26.63;;;15.10;;
37771;SDS011;23610;59.380;24.642;2023-03-14T20:16:19;29.92;;;14.90;;
37771;SDS011;23610;59.380;24.642;2023-03-14T20:21:21;32.42;;;18.15;;
37771;SDS011;23610;59.380;24.642;2023-03-14T20:26:24;28.17;;;16.92;;
37771;SDS011;23610;59.380;24.642;2023-03-14T20:31:27;29.88;;;14.88;;
37771;SDS011;23610;59.380;24.642;2023-03-14T20:36:30;26.23;;;14.65;;
37771;SDS011;23610;59.380;24.642;2023-03-14T20:41:35;29.65;;;15.98;;
37771;SDS011;23610;59.380;24.642;2023-03-14T20:46:42;27.60;;;15.73;;
37771;SDS011;23610;59.380;24.642;2023-03-14T20:51:45;25.75;;;14.50;;
37771;SDS011;23610;59.380;24.642;2023-03-14T20:56:47;24.05;;;13.20;;
37771;SDS011;23610;59.380;24.642;2023-03-14T21:02:10;24.67;;;12.88;;
37771;SDS011;23610;59.380;24.642;2023-03-14T21:07:31;30.80;;;13.88;;
37771;SDS011;23610;59.380;24.642;2023-03-14T21:12:37;30.55;;;15.00;;
37771;SDS011;23610;59.380;24.642;2023-03-14T21:17:40;26.65;;;15.02;;
37771;SDS011;23610;59.380;24.642;2023-03-14T21:22:43;30.50;;;15.80;;
37771;SDS011;23610;59.380;24.642;2023-03-14T21:27:46;34.17;;;16.05;;
37771;SDS011;23610;59.380;24.642;2023-03-14T21:32:50;24.10;;;14.23;;
37771;SDS011;23610;59.380;24.642;2023-03-14T21:37:57;31.30;;;15.70;;
37771;SDS011;23610;59.380;24.642;2023-03-14T21:43:00;33.78;;;15.55;;
37771;SDS011;23610;59.380;24.642;2023-03-14T21:48:03;32.20;;;16.55;;
37771;SDS011;23610;59.380;24.642;2023-03-14T21:53:06;33.05;;;15.75;;
37771;SDS011;23610;59.380;24.642;2023-03-14T21:58:09;25.73;;;14.65;;
37771;SDS011;23610;59.380;24.642;2023-03-14T22:03:15;28.92;;;15.68;;
37771;SDS011;23610;59.380;24.642;2023-03-14T22:08:20;24.83;;;14.73;;
37771;SDS011;23610;59.380;24.642;2023-03-14T22:13:23;33.65;;;15.88;;
37771;SDS011;23610;59.380;24.642;2023-03-14T22:18:26;24.83;;;14.50;;
37771;SDS011;23610;59.380;24.642;2023-03-14T22:23:31;25.38;;;14.73;;
37771;SDS011;23610;59.380;24.642;2023-03-14T22:28:33;27.02;;;13.52;;
37771;SDS011;23610;59.380;24.642;2023-03-14T22:33:36;28.98;;;14.20;;
37771;SDS011;23610;59.380;24.642;2023-03-14T22:38:39;25.83;;;13.35;;
37771;SDS011;23610;59.380;24.642;2023-03-14T22:43:41;23.80;;;13.40;;
37771;SDS011;23610;59.380;24.642;2023-03-14T22:48:44;25.73;;;14.00;;
37771;SDS011;23610;59.380;24.642;2023-03-14T22:53:47;24.65;;;13.10;;
37771;SDS011;23610;59.380;24.642;2023-03-14T22:58:50;18.05;;;11.15;;
37771;SDS011;23610;59.380;24.642;2023-03-14T23:03:53;18.73;;;11.52;;
37771;SDS011;23610;59.380;24.642;2023-03-14T23:08:56;23.63;;;11.32;;
37771;SDS011;23610;59.380;24.642;2023-03-14T23:13:58;23.40;;;12.00;;
37771;SDS011;23610;59.380;24.642;2023-03-14T23:19:02;22.20;;;11.75;;
37771;SDS011;23610;59.380;24.642;2023-03-14T23:24:05;22.45;;;11.55;;
37771;SDS011;23610;59.380;24.642;2023-03-14T23:29:08;21.88;;;11.13;;
37771;SDS011;23610;59.380;24.642;2023-03-14T23:34:14;16.63;;;9.15;;
37771;SDS011;23610;59.380;24.642;2023-03-14T23:39:18;19.63;;;9.50;;
37771;SDS011;23610;59.380;24.642;2023-03-14T23:44:21;14.80;;;7.15;;
37771;SDS011;23610;59.380;24.642;2023-03-14T23:49:25;15.00;;;7.55;;
37771;SDS011;23610;59.380;24.642;2023-03-14T23:54:27;19.33;;;7.90;;
37771;SDS011;23610;59.380;24.642;2023-03-14T23:59:30;15.05;;;7.15;;
